createdAt,value
2023-04-03T00:04:59.284Z,99.90
2023-04-03T00:10:01.227Z,99.90
2023-04-03T00:15:03.328Z,99.90
2023-04-03T00:20:06.112Z,99.90
2023-04-03T00:25:08.709Z,99.90
2023-04-03T00:30:14.599Z,99.90
2023-04-03T00:35:19.127Z,99.90
2023-04-03T00:40:22.827Z,99.90
2023-04-03T00:45:32.641Z,99.90
2023-04-03T00:50:38.741Z,99.90
2023-04-03T00:55:41.853Z,99.90
2023-04-03T01:00:47.616Z,99.90
2023-04-03T01:05:49.524Z,99.90
2023-04-03T01:10:51.576Z,99.90
2023-04-03T01:15:53.649Z,99.90
2023-04-03T01:21:14.079Z,99.90
2023-04-03T01:26:16.338Z,99.90
2023-04-03T01:31:34.451Z,99.90
2023-04-03T01:36:36.504Z,99.90
2023-04-03T01:41:38.353Z,99.90
2023-04-03T01:46:40.398Z,99.90
2023-04-03T01:51:42.149Z,99.90
2023-04-03T01:56:43.936Z,99.90
2023-04-03T02:01:46.286Z,99.90
2023-04-03T02:06:48.091Z,99.90
2023-04-03T02:11:49.988Z,99.90
2023-04-03T02:16:51.913Z,99.90
2023-04-03T02:21:53.738Z,99.90
2023-04-03T02:26:56.013Z,99.90
2023-04-03T02:31:57.806Z,99.90
2023-04-03T02:36:59.772Z,99.90
2023-04-03T02:42:01.764Z,99.90
2023-04-03T02:47:03.912Z,99.90
2023-04-03T02:52:06.069Z,99.90
2023-04-03T02:57:09.946Z,99.90
2023-04-03T03:02:12.520Z,99.90
2023-04-03T03:07:14.477Z,99.90
2023-04-03T03:12:16.746Z,99.90
2023-04-03T03:17:18.836Z,99.90
2023-04-03T03:22:21.266Z,99.90
2023-04-03T03:27:23.575Z,99.90
2023-04-03T03:32:25.413Z,99.90
2023-04-03T03:37:28.041Z,99.90
2023-04-03T03:42:29.824Z,99.90
2023-04-03T03:47:31.644Z,99.90
2023-04-03T03:52:33.651Z,99.90
2023-04-03T03:57:35.612Z,99.90
2023-04-03T04:02:37.519Z,99.90
2023-04-03T04:07:39.549Z,99.90
2023-04-03T04:12:41.305Z,99.90
2023-04-03T04:17:44.408Z,99.90
2023-04-03T04:22:46.241Z,99.90
2023-04-03T04:27:48.044Z,99.90
2023-04-03T04:32:49.853Z,99.90
2023-04-03T04:37:51.793Z,99.90
2023-04-03T04:42:53.607Z,99.90
2023-04-03T04:47:57.037Z,99.90
2023-04-03T04:52:58.904Z,99.90
2023-04-03T04:58:00.727Z,99.90
2023-04-03T05:03:02.679Z,99.90
2023-04-03T05:08:05.910Z,99.90
2023-04-03T05:13:07.916Z,99.90
2023-04-03T05:18:09.846Z,99.90
2023-04-03T05:23:12.426Z,99.90
2023-04-03T05:28:14.613Z,99.90
2023-04-03T05:33:16.571Z,99.90
2023-04-03T05:38:18.404Z,99.90
2023-04-03T05:43:20.319Z,99.90
2023-04-03T05:48:22.261Z,99.90
2023-04-03T05:53:28.749Z,99.90
2023-04-03T05:58:30.558Z,99.90
2023-04-03T06:03:32.689Z,99.90
2023-04-03T06:08:35.141Z,99.90
2023-04-03T06:13:36.965Z,99.90
2023-04-03T06:18:38.968Z,99.90
2023-04-03T06:23:41.732Z,99.90
2023-04-03T06:28:43.565Z,99.90
2023-04-03T06:33:45.378Z,99.90
2023-04-03T06:38:47.907Z,99.90
2023-04-03T06:43:49.821Z,99.90
2023-04-03T06:48:52.314Z,99.90
2023-04-03T06:53:56.692Z,99.90
2023-04-03T06:58:59.008Z,99.90
2023-04-03T07:04:01.270Z,99.90
2023-04-03T07:09:04.133Z,99.90
2023-04-03T07:14:07.149Z,99.90
2023-04-03T07:19:10.086Z,99.90
2023-04-03T07:24:15.918Z,99.90
2023-04-03T07:29:18.635Z,99.90
2023-04-03T07:34:20.569Z,99.90
2023-04-03T07:39:22.348Z,99.90
2023-04-03T07:44:24.537Z,99.90
2023-04-03T07:49:27.141Z,99.90
2023-04-03T07:54:29.938Z,99.90
2023-04-03T07:59:32.009Z,99.90
2023-04-03T08:04:33.982Z,99.90
2023-04-03T08:09:36.001Z,99.90
2023-04-03T08:14:37.992Z,99.90
2023-04-03T08:19:40.875Z,99.90
2023-04-03T08:24:56.189Z,99.90
2023-04-03T08:30:00.907Z,99.90
2023-04-03T08:35:03.437Z,99.90
2023-04-03T08:40:07.565Z,99.90
2023-04-03T08:45:41.404Z,99.90
2023-04-03T08:50:53.281Z,99.90
2023-04-03T08:55:56.550Z,99.90
2023-04-03T09:01:19.714Z,99.90
2023-04-03T09:06:25.170Z,99.90
2023-04-03T09:11:37.522Z,99.90
2023-04-03T09:16:39.211Z,99.90
2023-04-03T09:21:44.100Z,99.90
2023-04-03T09:27:00.840Z,99.90
2023-04-03T09:32:13.257Z,99.90
2023-04-03T09:37:38.599Z,99.90
2023-04-03T09:42:46.252Z,99.90
2023-04-03T09:48:05.543Z,99.90
2023-04-03T09:53:39.668Z,99.90
2023-04-03T09:58:50.565Z,99.90
2023-04-03T10:04:14.395Z,99.90
2023-04-03T10:09:21.639Z,99.90
2023-04-03T10:14:23.467Z,99.90
2023-04-03T10:19:49.853Z,99.90
2023-04-03T10:24:54.917Z,99.90
2023-04-03T10:30:19.618Z,99.90
2023-04-03T10:35:33.490Z,99.90
2023-04-03T10:40:59.915Z,99.90
2023-04-03T10:46:12.662Z,99.90
2023-04-03T10:51:25.557Z,99.90
2023-04-03T10:56:32.926Z,99.90
2023-04-03T11:01:39.491Z,99.90
2023-04-03T11:06:54.449Z,99.90
2023-04-03T11:12:11.099Z,99.90
2023-04-03T11:17:24.713Z,99.90
2023-04-03T11:22:54.425Z,99.90
2023-04-03T11:28:05.930Z,99.90
2023-04-03T11:33:23.089Z,99.90
2023-04-03T11:38:30.373Z,99.90
2023-04-03T11:43:33.092Z,99.90
2023-04-03T11:48:48.151Z,99.90
2023-04-03T11:53:50.295Z,99.90
2023-04-03T11:59:14.938Z,99.90
2023-04-03T12:04:18.745Z,99.90
2023-04-03T12:09:40.898Z,99.90
2023-04-03T12:14:42.770Z,99.90
2023-04-03T12:19:46.148Z,99.90
2023-04-03T12:24:51.242Z,99.90
2023-04-03T12:30:04.754Z,99.90
2023-04-03T12:35:21.665Z,99.90
2023-04-03T12:40:32.672Z,99.90
2023-04-03T12:45:53.529Z,99.90
2023-04-03T12:50:56.897Z,99.90
2023-04-03T12:56:18.922Z,99.90
2023-04-03T13:01:26.280Z,99.90
2023-04-03T13:06:48.324Z,99.90
2023-04-03T13:12:12.503Z,99.90
2023-04-03T13:17:15.967Z,99.90
2023-04-03T13:22:31.754Z,99.90
2023-04-03T13:27:34.074Z,99.90
2023-04-03T13:32:36.883Z,99.90
2023-04-03T13:37:38.722Z,99.90
2023-04-03T13:42:42.657Z,99.90
2023-04-03T13:47:46.895Z,99.90
2023-04-03T13:53:01.054Z,99.90
2023-04-03T13:58:21.539Z,99.90
2023-04-03T14:03:41.107Z,99.90
2023-04-03T14:08:43.946Z,99.90
2023-04-03T14:13:47.977Z,99.90
2023-04-03T14:18:50.943Z,99.90
2023-04-03T14:23:52.752Z,99.90
2023-04-03T14:28:56.587Z,99.90
2023-04-03T14:33:58.571Z,99.90
2023-04-03T14:39:01.767Z,99.90
2023-04-03T14:44:04.100Z,99.90
2023-04-03T14:49:18.894Z,99.90
2023-04-03T14:54:26.482Z,99.90
2023-04-03T14:59:30.657Z,99.90
2023-04-03T15:04:32.495Z,99.90
2023-04-03T15:09:37.767Z,99.90
2023-04-03T15:19:44.510Z,99.90
2023-04-03T15:24:46.721Z,99.90
2023-04-03T15:29:48.833Z,99.90
2023-04-03T15:34:50.997Z,99.90
2023-04-03T15:39:53.743Z,99.90
2023-04-03T15:44:55.666Z,99.90
2023-04-03T15:49:59.271Z,99.90
2023-04-03T15:55:01.186Z,99.90
2023-04-03T16:00:03.033Z,99.90
2023-04-03T16:05:05.469Z,99.90
2023-04-03T16:10:09.235Z,99.90
2023-04-03T16:15:11.614Z,99.90
2023-04-03T16:20:14.601Z,99.30
2023-04-03T16:25:16.743Z,99.50
2023-04-03T16:30:18.702Z,99.10
2023-04-03T16:35:20.794Z,99.90
2023-04-03T16:40:22.821Z,99.30
2023-04-03T16:45:24.594Z,99.10
2023-04-03T16:50:26.406Z,98.90
2023-04-03T16:55:28.414Z,99.90
2023-04-03T17:00:32.128Z,99.30
2023-04-03T17:05:34.129Z,99.20
2023-04-03T17:10:36.449Z,99.40
2023-04-03T17:15:38.714Z,99.40
2023-04-03T17:20:41.411Z,99.80
2023-04-03T17:25:43.276Z,99.90
2023-04-03T17:30:45.057Z,99.90
2023-04-03T17:35:46.808Z,99.90
2023-04-03T17:40:48.705Z,99.90
2023-04-03T17:45:53.095Z,99.90
2023-04-03T17:50:54.877Z,99.90
2023-04-03T17:55:56.679Z,99.90
2023-04-03T18:00:58.485Z,99.90
2023-04-03T18:06:07.230Z,99.90
2023-04-03T18:11:09.494Z,99.90
2023-04-03T18:16:12.692Z,99.90
2023-04-03T18:21:15.565Z,99.90
2023-04-03T18:26:19.837Z,99.90
2023-04-03T18:31:24.665Z,99.90
2023-04-03T18:36:27.985Z,99.90
2023-04-03T18:41:33.597Z,99.90
2023-04-03T18:51:41.128Z,99.90
2023-04-03T18:56:43.149Z,99.90
2023-04-03T19:01:44.931Z,99.90
2023-04-03T19:06:47.043Z,99.90
2023-04-03T19:11:48.831Z,99.90
2023-04-03T19:16:50.939Z,99.90
2023-04-03T19:21:52.791Z,99.90
2023-04-03T19:26:54.608Z,99.90
2023-04-03T19:31:56.435Z,99.90
2023-04-03T19:36:58.530Z,99.90
2023-04-03T19:42:00.981Z,99.90
2023-04-03T19:47:06.022Z,99.90
2023-04-03T19:52:07.895Z,99.90
2023-04-03T19:57:09.957Z,99.90
2023-04-03T20:02:11.896Z,99.90
2023-04-03T20:07:13.777Z,99.90
2023-04-03T20:12:15.599Z,99.90
2023-04-03T20:17:17.400Z,99.90
2023-04-03T20:22:19.197Z,99.90
2023-04-03T20:27:21.014Z,99.90
2023-04-03T20:32:22.949Z,99.90
2023-04-03T20:37:26.248Z,99.90
2023-04-03T20:42:28.024Z,99.90
2023-04-03T20:47:30.710Z,99.90
2023-04-03T20:52:33.665Z,99.90
2023-04-03T20:57:36.641Z,99.90
2023-04-03T21:02:38.441Z,99.90
2023-04-03T21:08:18.141Z,99.90
2023-04-03T21:13:57.702Z,99.90
2023-04-03T21:19:08.629Z,99.90
2023-04-03T21:24:11.054Z,99.90
2023-04-03T21:29:13.020Z,99.90
2023-04-03T21:34:15.561Z,99.90
2023-04-03T21:39:18.100Z,99.90
2023-04-03T21:44:20.720Z,99.90
2023-04-03T21:49:24.142Z,99.90
2023-04-03T21:54:26.191Z,99.90
2023-04-03T21:59:28.090Z,99.90
2023-04-03T22:04:33.028Z,99.90
2023-04-03T22:09:34.771Z,99.90
2023-04-03T22:14:36.548Z,99.90
2023-04-03T22:19:39.103Z,99.90
2023-04-03T22:24:40.998Z,99.90
2023-04-03T22:29:42.751Z,99.90
2023-04-03T22:34:44.536Z,99.90
2023-04-03T22:39:46.997Z,99.90
2023-04-03T22:44:48.720Z,99.90
2023-04-03T22:49:50.451Z,99.90
2023-04-03T22:54:52.324Z,99.90
2023-04-03T22:59:54.081Z,99.90
2023-04-03T23:04:57.581Z,99.90
2023-04-03T23:09:59.338Z,99.90
2023-04-03T23:15:01.090Z,99.90
2023-04-03T23:20:02.928Z,99.90
2023-04-03T23:25:05.094Z,99.90
2023-04-03T23:30:07.583Z,99.90
2023-04-03T23:35:09.573Z,99.90
2023-04-03T23:40:11.838Z,99.90
2023-04-03T23:45:13.657Z,99.90
2023-04-03T23:50:16.512Z,99.90
2023-04-03T23:55:18.312Z,99.90
